createdAt,value
2022-10-17T00:01:37.758Z,21.50
2022-10-17T00:04:07.590Z,21.50
2022-10-17T00:06:36.742Z,21.50
2022-10-17T00:09:06.015Z,21.60
2022-10-17T00:11:35.286Z,21.70
2022-10-17T00:14:05.245Z,21.70
2022-10-17T00:16:40.420Z,21.80
2022-10-17T00:19:09.713Z,21.90
2022-10-17T00:21:38.920Z,22.00
2022-10-17T00:24:08.308Z,22.00
2022-10-17T00:26:37.385Z,22.10
2022-10-17T00:29:06.722Z,22.20
2022-10-17T00:31:36.677Z,22.30
2022-10-17T00:34:05.814Z,22.40
2022-10-17T00:36:35.849Z,22.40
2022-10-17T00:39:05.628Z,22.50
2022-10-17T00:41:35.848Z,22.60
2022-10-17T00:44:31.819Z,22.70
2022-10-17T00:47:17.687Z,22.80
2022-10-17T00:49:47.290Z,22.90
2022-10-17T00:52:24.666Z,23.00
2022-10-17T00:55:39.278Z,23.00
2022-10-17T00:58:10.172Z,23.10
2022-10-17T01:00:39.547Z,23.20
2022-10-17T01:03:09.073Z,23.30
2022-10-17T01:05:39.736Z,23.40
2022-10-17T01:08:09.977Z,23.50
2022-10-17T01:11:36.340Z,23.60
2022-10-17T01:14:34.476Z,23.60
2022-10-17T01:28:40.626Z,23.70
2022-10-17T01:31:24.018Z,24.10
2022-10-17T01:34:23.232Z,24.20
2022-10-17T01:37:18.527Z,24.20
2022-10-17T01:40:13.863Z,24.30
2022-10-17T01:43:09.126Z,24.40
2022-10-17T01:46:09.193Z,24.40
2022-10-17T01:48:50.331Z,24.50
2022-10-17T01:52:01.411Z,24.60
2022-10-17T01:55:04.994Z,24.60
2022-10-17T01:58:08.928Z,24.70
2022-10-17T02:00:49.532Z,24.70
2022-10-17T02:03:28.899Z,24.80
2022-10-17T02:06:06.456Z,24.80
2022-10-17T02:08:52.765Z,24.90
2022-10-17T02:11:26.107Z,25.00
2022-10-17T02:14:41.499Z,25.00
2022-10-17T02:17:41.868Z,25.10
2022-10-17T02:20:38.768Z,25.20
2022-10-17T02:23:13.528Z,25.20
2022-10-17T02:26:20.930Z,25.30
2022-10-17T02:28:58.556Z,25.40
2022-10-17T02:31:49.521Z,25.50
2022-10-17T02:34:55.852Z,25.50
2022-10-17T02:37:30.793Z,25.60
2022-10-17T02:40:03.314Z,25.70
2022-10-17T02:42:34.376Z,25.80
2022-10-17T02:45:06.614Z,25.80
2022-10-17T02:47:47.763Z,25.80
2022-10-17T02:50:17.257Z,25.90
2022-10-17T02:53:09.249Z,26.00
2022-10-17T02:55:59.154Z,26.00
2022-10-17T02:58:37.031Z,26.10
2022-10-17T03:01:07.335Z,26.20
2022-10-17T03:03:36.508Z,26.20
2022-10-17T03:06:05.767Z,26.30
2022-10-17T03:08:34.975Z,26.40
2022-10-17T03:11:04.308Z,26.40
2022-10-17T03:13:35.072Z,26.50
2022-10-17T03:16:07.288Z,26.60
2022-10-17T03:18:36.501Z,26.70
2022-10-17T03:21:05.902Z,26.80
2022-10-17T03:23:35.076Z,26.90
2022-10-17T03:26:08.905Z,27.00
2022-10-17T03:28:39.277Z,27.00
2022-10-17T03:31:19.172Z,27.10
2022-10-17T03:33:48.352Z,27.20
2022-10-17T03:36:20.331Z,27.30
2022-10-17T03:38:49.981Z,27.40
2022-10-17T03:41:19.166Z,27.50
2022-10-17T03:43:48.410Z,27.70
2022-10-17T03:48:47.498Z,27.80
2022-10-17T03:51:17.069Z,27.90
2022-10-17T03:53:46.305Z,27.90
2022-10-17T03:56:21.920Z,28.00
2022-10-17T03:58:51.633Z,28.20
2022-10-17T04:01:22.062Z,28.20
2022-10-17T04:03:54.620Z,28.40
2022-10-17T04:06:24.970Z,28.50
2022-10-17T04:08:54.166Z,28.50
2022-10-17T04:11:23.627Z,28.60
2022-10-17T04:13:58.165Z,28.70
2022-10-17T04:16:29.906Z,28.80
2022-10-17T04:19:01.813Z,28.80
2022-10-17T04:21:31.608Z,28.90
2022-10-17T04:24:02.365Z,29.00
2022-10-17T04:26:32.548Z,29.00
2022-10-17T04:29:01.643Z,29.00
2022-10-17T04:31:30.987Z,29.10
2022-10-17T04:34:00.203Z,29.10
2022-10-17T04:36:29.382Z,29.20
2022-10-17T04:38:58.545Z,29.30
2022-10-17T04:41:27.675Z,29.30
2022-10-17T04:43:56.724Z,29.40
2022-10-17T04:46:26.224Z,29.50
2022-10-17T04:48:56.169Z,29.50
2022-10-17T04:51:26.623Z,29.60
2022-10-17T04:53:56.591Z,29.70
2022-10-17T04:56:27.258Z,29.70
2022-10-17T04:58:56.674Z,29.80
2022-10-17T05:01:27.241Z,29.90
2022-10-17T05:03:56.989Z,30.00
2022-10-17T05:06:31.259Z,30.10
2022-10-17T05:09:00.929Z,30.10
2022-10-17T05:11:31.592Z,30.10
2022-10-17T05:14:04.176Z,30.20
2022-10-17T05:16:33.381Z,30.20
2022-10-17T05:19:02.612Z,30.30
2022-10-17T05:24:02.619Z,30.50
2022-10-17T05:26:33.006Z,30.50
2022-10-17T05:29:03.994Z,30.60
2022-10-17T05:31:34.023Z,30.70
2022-10-17T05:34:07.044Z,30.70
2022-10-17T05:36:38.369Z,30.70
2022-10-17T05:39:07.600Z,30.80
2022-10-17T05:41:37.132Z,30.80
2022-10-17T05:44:06.591Z,30.90
2022-10-17T05:46:35.776Z,30.90
2022-10-17T05:49:14.790Z,31.00
2022-10-17T05:51:54.344Z,31.00
2022-10-17T05:54:23.498Z,31.10
2022-10-17T05:56:57.504Z,31.20
2022-10-17T05:59:30.192Z,31.20
2022-10-17T06:01:59.484Z,31.30
2022-10-17T06:04:28.838Z,31.30
2022-10-17T06:06:57.994Z,31.40
2022-10-17T06:09:27.261Z,31.40
2022-10-17T06:11:56.390Z,31.50
2022-10-17T06:14:25.555Z,31.50
2022-10-17T06:16:54.723Z,31.50
2022-10-17T06:19:23.861Z,31.50
2022-10-17T06:21:53.166Z,31.50
2022-10-17T06:24:22.406Z,31.60
2022-10-17T06:26:52.230Z,31.60
2022-10-17T06:29:21.500Z,31.70
2022-10-17T06:31:50.713Z,31.70
2022-10-17T06:34:20.097Z,31.70
2022-10-17T06:36:50.097Z,31.70
2022-10-17T06:39:19.606Z,31.70
2022-10-17T06:41:48.771Z,31.70
2022-10-17T06:44:18.832Z,31.70
2022-10-17T06:46:47.922Z,31.60
2022-10-17T06:49:17.039Z,31.70
2022-10-17T06:51:46.181Z,31.70
2022-10-17T06:54:15.335Z,31.70
2022-10-17T06:56:44.508Z,31.80
2022-10-17T06:59:13.739Z,31.90
2022-10-17T07:01:46.148Z,31.90
2022-10-17T07:04:16.357Z,31.90
2022-10-17T07:06:45.691Z,31.80
2022-10-17T07:09:14.995Z,31.80
2022-10-17T07:11:44.512Z,31.80
2022-10-17T07:14:13.550Z,31.80
2022-10-17T07:16:42.652Z,31.80
2022-10-17T07:19:11.749Z,31.90
2022-10-17T07:21:40.889Z,31.90
2022-10-17T07:24:10.139Z,31.90
2022-10-17T07:26:39.340Z,32.00
2022-10-17T07:29:10.814Z,32.00
2022-10-17T07:31:40.137Z,32.00
2022-10-17T07:34:09.227Z,32.00
2022-10-17T07:36:38.362Z,32.10
2022-10-17T07:39:07.616Z,32.10
2022-10-17T07:41:36.770Z,32.10
2022-10-17T07:44:06.453Z,32.10
2022-10-17T07:46:35.691Z,32.10
2022-10-17T07:49:04.976Z,32.10
2022-10-17T07:51:34.588Z,32.10
2022-10-17T07:54:03.941Z,32.10
2022-10-17T07:56:33.116Z,32.10
2022-10-17T07:59:05.144Z,32.10
2022-10-17T08:01:38.048Z,32.10
2022-10-17T08:04:07.164Z,32.10
2022-10-17T08:06:36.397Z,32.10
2022-10-17T08:09:05.810Z,32.10
2022-10-17T08:11:36.892Z,32.10
2022-10-17T08:14:06.127Z,32.10
2022-10-17T08:16:35.210Z,32.10
2022-10-17T08:19:05.724Z,32.00
2022-10-17T08:21:34.999Z,32.00
2022-10-17T08:24:04.243Z,32.00
2022-10-17T08:26:34.084Z,32.00
2022-10-17T08:29:03.684Z,32.00
2022-10-17T08:31:32.936Z,32.00
2022-10-17T08:34:02.160Z,31.90
2022-10-17T08:36:31.408Z,31.90
2022-10-17T08:39:00.731Z,31.90
2022-10-17T08:41:53.977Z,31.80
2022-10-17T08:44:44.237Z,31.90
2022-10-17T08:47:24.257Z,31.80
2022-10-17T08:50:04.293Z,31.80
2022-10-17T08:53:02.033Z,31.80
2022-10-17T08:55:54.739Z,31.80
2022-10-17T08:58:32.915Z,31.80
2022-10-17T09:02:08.564Z,31.80
2022-10-17T09:04:47.042Z,31.80
2022-10-17T09:07:30.091Z,31.80
2022-10-17T09:10:02.987Z,31.80
2022-10-17T09:13:07.984Z,31.80
2022-10-17T09:15:58.512Z,31.80
2022-10-17T09:18:38.390Z,31.70
2022-10-17T09:21:38.275Z,31.70
2022-10-17T09:24:26.374Z,31.70
2022-10-17T09:26:58.661Z,31.70
2022-10-17T09:29:36.047Z,31.70
2022-10-17T09:32:20.552Z,31.60
2022-10-17T09:34:50.084Z,31.60
2022-10-17T09:37:20.260Z,31.50
2022-10-17T09:39:50.019Z,31.50
2022-10-17T09:42:28.530Z,31.40
2022-10-17T09:45:28.014Z,31.40
2022-10-17T09:48:28.013Z,31.40
2022-10-17T09:51:14.622Z,31.30
2022-10-17T09:53:55.079Z,31.20
2022-10-17T09:56:24.480Z,31.20
2022-10-17T09:58:58.701Z,31.10
2022-10-17T10:01:33.227Z,31.10
2022-10-17T10:04:18.325Z,31.00
2022-10-17T10:07:08.235Z,30.90
2022-10-17T10:09:40.475Z,30.90
2022-10-17T10:12:27.972Z,30.80
2022-10-17T10:14:58.706Z,30.70
2022-10-17T10:17:42.884Z,30.70
2022-10-17T10:20:36.786Z,30.60
2022-10-17T10:23:22.435Z,30.50
2022-10-17T10:26:00.555Z,30.40
2022-10-17T10:28:38.889Z,30.30
2022-10-17T10:31:11.355Z,30.20
2022-10-17T10:33:49.445Z,30.10
2022-10-17T10:36:23.913Z,30.00
2022-10-17T10:39:01.315Z,29.80
2022-10-17T10:41:50.077Z,29.70
2022-10-17T10:44:29.955Z,29.60
2022-10-17T10:47:21.322Z,29.40
2022-10-17T10:49:53.835Z,29.30
2022-10-17T10:52:59.484Z,29.10
2022-10-17T10:55:33.460Z,29.00
2022-10-17T10:58:43.084Z,28.90
2022-10-17T11:01:31.394Z,28.80
2022-10-17T11:04:21.440Z,28.60
2022-10-17T11:06:59.893Z,28.50
2022-10-17T11:10:01.682Z,28.40
2022-10-17T11:12:42.529Z,28.30
2022-10-17T11:15:37.949Z,28.20
2022-10-17T11:18:17.810Z,28.20
2022-10-17T11:21:11.204Z,28.10
2022-10-17T11:24:02.846Z,28.00
2022-10-17T11:26:44.423Z,27.90
2022-10-17T11:29:15.337Z,27.90
2022-10-17T11:31:54.158Z,27.80
2022-10-17T11:34:32.882Z,27.70
2022-10-17T11:37:17.196Z,27.70
2022-10-17T11:40:24.602Z,27.70
2022-10-17T11:43:18.452Z,27.60
2022-10-17T11:46:01.197Z,27.60
2022-10-17T11:48:46.571Z,27.50
2022-10-17T11:54:37.578Z,27.40
2022-10-17T11:57:27.952Z,27.40
2022-10-17T12:00:17.823Z,27.40
2022-10-17T12:03:13.048Z,27.30
2022-10-17T12:06:03.287Z,27.30
2022-10-17T12:08:59.145Z,27.20
2022-10-17T12:11:57.662Z,27.10
2022-10-17T12:14:47.477Z,27.10
2022-10-17T12:17:39.945Z,27.10
2022-10-17T12:20:28.253Z,27.00
2022-10-17T12:23:12.447Z,27.00
2022-10-17T12:26:01.674Z,26.90
2022-10-17T12:28:46.404Z,26.90
2022-10-17T12:31:18.464Z,26.80
2022-10-17T12:34:06.027Z,26.80
2022-10-17T12:36:35.046Z,26.80
2022-10-17T12:39:04.172Z,26.80
2022-10-17T12:41:43.324Z,26.70
2022-10-17T12:44:15.623Z,26.70
2022-10-17T12:47:09.051Z,26.70
2022-10-17T12:49:49.671Z,26.60
2022-10-17T12:52:36.120Z,26.60
2022-10-17T12:55:20.646Z,26.60
2022-10-17T12:58:09.057Z,26.60
2022-10-17T13:03:50.401Z,26.40
2022-10-17T13:06:31.128Z,26.40
2022-10-17T13:09:19.114Z,26.40
2022-10-17T13:11:51.339Z,26.30
2022-10-17T13:14:25.160Z,26.30
2022-10-17T13:17:04.130Z,26.20
2022-10-17T13:19:47.495Z,26.20
2022-10-17T13:22:29.497Z,26.20
2022-10-17T13:25:22.236Z,26.10
2022-10-17T13:27:55.452Z,26.10
2022-10-17T13:30:32.444Z,26.00
2022-10-17T13:33:04.213Z,26.00
2022-10-17T13:38:36.691Z,25.90
2022-10-17T13:41:34.851Z,25.90
2022-10-17T13:44:18.658Z,25.80
2022-10-17T13:46:49.057Z,25.80
2022-10-17T13:49:23.184Z,25.70
2022-10-17T13:51:57.388Z,25.70
2022-10-17T13:54:44.508Z,25.60
2022-10-17T13:57:32.769Z,25.60
2022-10-17T14:00:23.957Z,25.60
2022-10-17T14:02:53.185Z,25.50
2022-10-17T14:05:24.629Z,25.50
2022-10-17T14:08:12.779Z,25.40
2022-10-17T14:10:45.759Z,25.40
2022-10-17T14:13:37.240Z,25.30
2022-10-17T14:16:09.348Z,25.30
2022-10-17T14:18:39.924Z,25.20
2022-10-17T14:24:37.406Z,25.10
2022-10-17T14:27:39.167Z,25.00
2022-10-17T14:30:51.791Z,25.00
2022-10-17T14:33:30.937Z,25.00
2022-10-17T14:36:04.193Z,24.90
2022-10-17T14:38:33.802Z,24.90
2022-10-17T14:41:41.442Z,24.90
2022-10-17T14:44:16.028Z,24.80
2022-10-17T14:46:51.228Z,24.80
2022-10-17T14:49:48.048Z,24.80
2022-10-17T14:52:20.281Z,24.70
2022-10-17T14:54:51.797Z,24.70
2022-10-17T14:57:35.399Z,24.70
2022-10-17T15:00:05.640Z,24.60
2022-10-17T15:02:34.856Z,24.60
2022-10-17T15:05:04.150Z,24.60
2022-10-17T15:07:33.388Z,24.60
2022-10-17T15:10:02.791Z,24.50
2022-10-17T15:12:32.773Z,24.50
2022-10-17T15:15:02.059Z,24.50
2022-10-17T15:17:35.513Z,24.50
2022-10-17T15:20:05.461Z,24.50
2022-10-17T15:22:37.510Z,24.50
2022-10-17T15:25:07.475Z,24.50
2022-10-17T15:27:37.000Z,24.40
2022-10-17T15:30:20.691Z,24.40
2022-10-17T15:32:53.282Z,24.40
2022-10-17T15:35:24.062Z,24.40
2022-10-17T15:37:53.723Z,24.40
2022-10-17T15:40:27.169Z,24.40
2022-10-17T15:42:57.475Z,24.30
2022-10-17T15:45:27.181Z,24.30
2022-10-17T15:48:09.276Z,24.30
2022-10-17T15:50:38.436Z,24.20
2022-10-17T15:53:13.262Z,24.20
2022-10-17T15:55:42.883Z,24.20
2022-10-17T15:58:19.856Z,24.20
2022-10-17T16:00:50.081Z,24.10
2022-10-17T16:03:19.307Z,24.10
2022-10-17T16:05:48.716Z,24.00
2022-10-17T16:08:17.853Z,24.00
2022-10-17T16:10:47.225Z,23.90
2022-10-17T16:13:23.392Z,23.90
2022-10-17T16:15:53.359Z,23.90
2022-10-17T16:18:22.528Z,23.80
2022-10-17T16:20:51.839Z,23.80
2022-10-17T16:23:21.250Z,23.80
2022-10-17T16:25:50.498Z,23.80
2022-10-17T16:28:20.569Z,23.80
2022-10-17T16:30:50.190Z,23.70
2022-10-17T16:33:19.655Z,23.80
2022-10-17T16:35:50.324Z,23.70
2022-10-17T16:38:19.764Z,23.70
2022-10-17T16:40:48.987Z,23.70
2022-10-17T16:43:18.216Z,23.70
2022-10-17T16:45:47.470Z,23.70
2022-10-17T16:48:18.719Z,23.70
2022-10-17T16:50:47.952Z,23.60
2022-10-17T16:53:17.102Z,23.60
2022-10-17T16:55:46.361Z,23.60
2022-10-17T16:58:15.533Z,23.50
2022-10-17T17:00:44.790Z,23.50
2022-10-17T17:03:14.046Z,23.50
2022-10-17T17:05:43.277Z,23.50
2022-10-17T17:08:12.795Z,23.60
2022-10-17T17:10:55.094Z,23.50
2022-10-17T17:13:24.346Z,23.60
2022-10-17T17:15:54.934Z,23.60
2022-10-17T17:18:24.587Z,23.60
2022-10-17T17:20:58.647Z,23.60
2022-10-17T17:23:28.128Z,23.60
2022-10-17T17:26:11.689Z,23.60
2022-10-17T17:28:43.231Z,23.60
2022-10-17T17:31:20.835Z,23.60
2022-10-17T17:33:51.529Z,23.60
2022-10-17T17:36:31.180Z,23.60
2022-10-17T17:39:04.664Z,23.60
2022-10-17T17:41:34.974Z,23.60
2022-10-17T17:44:05.720Z,23.60
2022-10-17T17:46:35.237Z,23.60
2022-10-17T17:49:04.426Z,23.60
2022-10-17T17:51:35.709Z,23.60
2022-10-17T17:54:06.127Z,23.50
2022-10-17T17:56:35.374Z,23.50
2022-10-17T17:59:05.741Z,23.50
2022-10-17T18:01:39.404Z,23.50
2022-10-17T18:04:10.969Z,23.50
2022-10-17T18:06:41.555Z,23.50
2022-10-17T18:09:11.292Z,23.50
2022-10-17T18:11:40.530Z,23.50
2022-10-17T18:14:14.801Z,23.50
2022-10-17T18:16:44.328Z,23.50
2022-10-17T18:19:14.118Z,23.50
2022-10-17T18:21:45.254Z,23.50
2022-10-17T18:24:14.392Z,23.50
2022-10-17T18:26:43.542Z,23.50
2022-10-17T18:29:13.850Z,23.40
2022-10-17T18:31:43.115Z,23.40
2022-10-17T18:34:12.295Z,23.40
2022-10-17T18:36:41.348Z,23.40
2022-10-17T18:39:10.496Z,23.30
2022-10-17T18:41:39.757Z,23.30
2022-10-17T18:44:08.850Z,23.30
2022-10-17T18:46:41.821Z,23.30
2022-10-17T18:49:14.341Z,23.20
2022-10-17T18:51:44.364Z,23.20
2022-10-17T18:54:22.190Z,23.20
2022-10-17T18:56:56.391Z,23.20
2022-10-17T18:59:25.616Z,23.20
2022-10-17T19:01:54.888Z,23.20
2022-10-17T19:04:24.159Z,23.20
2022-10-17T19:06:53.400Z,23.20
2022-10-17T19:09:22.614Z,23.10
2022-10-17T19:11:51.751Z,23.10
2022-10-17T19:14:20.824Z,23.10
2022-10-17T19:16:52.840Z,23.10
2022-10-17T19:19:26.251Z,23.10
2022-10-17T19:21:55.631Z,23.10
2022-10-17T19:24:28.074Z,23.10
2022-10-17T19:27:03.646Z,23.00
2022-10-17T19:29:34.003Z,23.00
2022-10-17T19:32:03.691Z,23.00
2022-10-17T19:34:32.790Z,23.00
2022-10-17T19:37:01.818Z,23.00
2022-10-17T19:39:31.036Z,22.90
2022-10-17T19:42:05.936Z,22.90
2022-10-17T19:44:36.849Z,22.90
2022-10-17T19:47:06.001Z,22.90
2022-10-17T19:49:35.443Z,22.80
2022-10-17T19:52:04.797Z,22.80
2022-10-17T19:54:34.155Z,22.70
2022-10-17T19:57:08.032Z,22.70
2022-10-17T19:59:39.612Z,22.70
2022-10-17T20:02:08.885Z,22.70
2022-10-17T20:04:49.549Z,22.70
2022-10-17T20:07:27.214Z,22.70
2022-10-17T20:09:56.372Z,22.70
2022-10-17T20:12:25.567Z,22.70
2022-10-17T20:14:54.780Z,22.60
2022-10-17T20:17:23.968Z,22.60
2022-10-17T20:19:53.526Z,22.60
2022-10-17T20:22:23.225Z,22.60
2022-10-17T20:24:52.431Z,22.60
2022-10-17T20:27:25.518Z,22.60
2022-10-17T20:29:56.790Z,22.60
2022-10-17T20:32:26.039Z,22.60
2022-10-17T20:34:55.574Z,22.60
2022-10-17T20:37:24.941Z,22.60
2022-10-17T20:40:16.466Z,22.60
2022-10-17T20:42:43.187Z,22.60
2022-10-17T20:45:12.749Z,22.60
2022-10-17T20:47:47.028Z,22.60
2022-10-17T20:50:17.386Z,22.60
2022-10-17T20:52:46.428Z,22.50
2022-10-17T20:55:15.641Z,22.50
2022-10-17T20:57:44.715Z,22.40
2022-10-17T21:00:14.675Z,22.40
2022-10-17T21:02:43.911Z,22.40
2022-10-17T21:05:13.271Z,22.40
2022-10-17T21:07:42.609Z,22.30
2022-10-17T21:10:34.268Z,22.30
2022-10-17T21:13:01.430Z,22.20
2022-10-17T21:15:30.645Z,22.20
2022-10-17T21:17:59.843Z,22.20
2022-10-17T21:20:28.978Z,22.20
2022-10-17T21:23:01.342Z,22.10
2022-10-17T21:25:30.454Z,22.10
2022-10-17T21:27:59.572Z,22.10
2022-10-17T21:30:28.715Z,22.00
2022-10-17T21:32:58.401Z,22.00
2022-10-17T21:35:27.958Z,22.00
2022-10-17T21:37:57.068Z,21.90
2022-10-17T21:40:26.229Z,21.90
2022-10-17T21:42:55.426Z,21.90
2022-10-17T21:45:25.805Z,21.90
2022-10-17T21:48:12.292Z,21.90
2022-10-17T21:50:42.465Z,21.80
2022-10-17T21:53:11.782Z,21.80
2022-10-17T21:55:41.039Z,21.70
2022-10-17T21:58:10.325Z,21.70
2022-10-17T22:00:39.615Z,21.60
2022-10-17T22:03:10.460Z,21.60
2022-10-17T22:05:40.014Z,21.60
2022-10-17T22:08:09.342Z,21.60
2022-10-17T22:10:40.120Z,21.60
2022-10-17T22:13:09.703Z,21.60
2022-10-17T22:15:38.908Z,21.60
2022-10-17T22:18:08.116Z,21.50
2022-10-17T22:20:37.583Z,21.50
2022-10-17T22:23:06.684Z,21.50
2022-10-17T22:25:35.899Z,21.50
2022-10-17T22:28:05.338Z,21.50
2022-10-17T22:30:35.657Z,21.50
2022-10-17T22:33:04.890Z,21.50
2022-10-17T22:35:33.989Z,21.40
2022-10-17T22:38:03.116Z,21.40
2022-10-17T22:40:32.307Z,21.30
2022-10-17T22:43:01.398Z,21.30
2022-10-17T22:45:30.520Z,21.30
2022-10-17T22:47:59.923Z,21.30
2022-10-17T22:50:29.107Z,21.20
2022-10-17T22:52:58.169Z,21.20
2022-10-17T22:55:27.836Z,21.20
2022-10-17T22:57:56.993Z,21.10
2022-10-17T23:00:26.095Z,21.10
2022-10-17T23:02:59.219Z,21.10
2022-10-17T23:05:28.291Z,21.10
2022-10-17T23:07:58.404Z,21.00
2022-10-17T23:10:27.602Z,21.10
2022-10-17T23:12:56.724Z,21.00
2022-10-17T23:15:25.851Z,21.00
2022-10-17T23:17:54.968Z,21.10
2022-10-17T23:20:24.117Z,21.10
2022-10-17T23:22:53.419Z,21.10
2022-10-17T23:25:22.619Z,21.10
2022-10-17T23:27:52.112Z,21.10
2022-10-17T23:30:22.059Z,21.10
2022-10-17T23:32:51.244Z,21.10
2022-10-17T23:35:20.522Z,21.10
2022-10-17T23:37:49.742Z,21.10
2022-10-17T23:40:18.956Z,21.10
2022-10-17T23:42:48.147Z,21.10
2022-10-17T23:45:17.580Z,21.20
2022-10-17T23:47:46.701Z,21.20
2022-10-17T23:50:16.978Z,21.20
2022-10-17T23:52:46.110Z,21.20
2022-10-17T23:55:15.293Z,21.20
2022-10-17T23:57:44.376Z,21.30
